Flight Track Log - Related Links

Times and Time Zones

All times are in EDT time to prevent confusion due to time zone crossing. See the JBU1475 flight status page for this flight to view local times or setup timezone preferences in your user account.

Time Position Orientation Groundspeed Altitude Reporting Facility
EDT Latitude Longitude Course Direction KTS MPH feet Rate Location/Type
Mon 08:21:02 PM 42.3950 -70.9900 22° Northeast 159 183 1,400  Level FlightAware ADS-B
Mon 08:21:32 PM 42.4190 -70.9770 22° Northeast 192 221 1,900 764 Climbing FlightAware ADS-B
Mon 08:21:57 PM 42.4400 -70.9580 34° Northeast 229 264 2,100 600 Climbing FlightAware ADS-B
Mon 08:22:12 PM 42.4460 -70.9390 67° East 243 280 2,300 1,400 Climbing FlightAware ADS-B
Mon 08:22:27 PM 42.4500 -70.9150 77° East 252 290 2,800 2,100 Climbing FlightAware ADS-B
Mon 08:22:52 PM 42.4570 -70.8750 77° East 266 306 3,700 1,855 Climbing FlightAware ADS-B
Mon 08:23:22 PM 42.4520 -70.8260 98° East 283 326 4,500 2,133 Climbing FlightAware ADS-B
Mon 08:23:37 PM 42.4370 -70.8090 140° Southeast 271 312 5,300 2,800 Climbing FlightAware ADS-B
Mon 08:24:07 PM 42.3990 -70.7920 162° South 273 314 6,600 2,509 Climbing FlightAware ADS-B
Mon 08:24:32 PM 42.3670 -70.7780 162° South 290 334 7,600 2,509 Climbing FlightAware ADS-B
Mon 08:25:02 PM 42.3300 -70.7620 162° South 288 331 8,900 2,400 Climbing FlightAware ADS-B
Mon 08:25:12 PM 42.3170 -70.7560 161° South 287 330 9,200 1,964 Climbing FlightAware ADS-B
Mon 08:25:57 PM 42.2590 -70.7550 179° South 289 333 10,700 2,200 Climbing FlightAware ADS-B
Mon 08:26:12 PM 42.2460 -70.7730 226° Southwest 283 326 11,400 2,400 Climbing FlightAware ADS-B
Mon 08:26:32 PM 42.2370 -70.8070 250° West 284 327 12,100 1,800 Climbing FlightAware ADS-B
Mon 08:27:12 PM 42.2350 -70.8730 268° West 292 336 13,200 2,025 Climbing FlightAware ADS-B
Mon 08:27:52 PM 42.2520 -70.9500 287° West 293 337 14,800 2,100 Climbing FlightAware ADS-B
Mon 08:28:32 PM 42.2760 -71.0180 296° West 300 345 16,000 1,575 Climbing FlightAware ADS-B
Mon 08:29:12 PM 42.3060 -71.0830 302° West 314 361 16,900 975 Climbing FlightAware ADS-B
Mon 08:29:52 PM 42.3380 -71.1540 301° West 343 395 17,300 500 Climbing FlightAware ADS-B
Mon 08:30:12 PM 42.3420 -71.1920 278° West 353 406 17,400 500 Climbing FlightAware ADS-B
Mon 08:30:52 PM 42.3320 -71.2850 262° West 374 430 17,800 825 Climbing FlightAware ADS-B
Mon 08:31:32 PM 42.3220 -71.3710 261° West 384 442 18,500 1,185 Climbing FlightAware ADS-B
Mon 08:32:13 PM 42.3100 -71.4790 261° West 390 449 19,400 1,159 Climbing FlightAware ADS-B
Mon 08:33:00 PM 42.2960 -71.5970 261° West 403 464 20,200 1,063 Climbing FlightAware ADS-B
Mon 08:33:32 PM 42.2870 -71.6760 261° West 407 468 20,800 1,342 Climbing FlightAware ADS-B
Mon 08:34:16 PM 42.2660 -71.7840 255° West 400 460 21,900 1,143 Climbing FlightAware ADS-B
Mon 08:34:56 PM 42.2340 -71.8750 245° Southwest 408 470 22,400 711 Climbing FlightAware ADS-B
Mon 08:35:32 PM 42.2040 -71.9570 244° Southwest 416 479 22,800 1,342 Climbing FlightAware ADS-B
Mon 08:36:12 PM 42.1730 -72.0460 245° Southwest 399 459 24,100 1,275 Climbing FlightAware ADS-B
Mon 08:36:52 PM 42.1430 -72.1300 244° Southwest 409 471 24,500 600 Climbing FlightAware ADS-B
Mon 08:37:32 PM 42.1060 -72.2320 244° Southwest 417 480 24,900 540 Climbing FlightAware ADS-B
Mon 08:38:32 PM 42.0540 -72.3760 244° Southwest 437 503 25,400 574 Climbing FlightAware ADS-B
Mon 08:39:27 PM 42.0080 -72.5050 244° Southwest 443 510 26,000 387 Climbing FlightAware ADS-B
Mon 08:40:05 PM 41.9790 -72.5850 244° Southwest 443 510 26,000 957 Level FlightAware ADS-B
Mon 08:40:36 PM 41.9330 -72.6750 236° Southwest 442 509 27,100 825 Climbing FlightAware ADS-B
Mon 08:41:25 PM 41.8780 -72.7630 230° Southwest 442 509 27,100  Level FlightAware ADS-B
Mon 08:42:02 PM 41.8370 -72.8290 230° Southwest 442 509 27,100  Level FlightAware ADS-B
Mon 08:42:38 PM 41.7970 -72.8930 230° Southwest 442 509 27,100 1,172 Level FlightAware ADS-B
Mon 08:43:29 PM 41.7500 -73.0900 252° West 459 528 28,800 1,378 Climbing FlightAware ADS-B
Mon 08:44:08 PM 41.7150 -73.1760 241° Southwest 29,400 1,000 Climbing FlightAware ADS-B
Mon 08:44:53 PM 41.6620 -73.3020 241° Southwest 454 522 30,200 1,091 Climbing FlightAware ADS-B
Mon 08:45:25 PM 41.6204 -73.3730 232° Southwest 450 518 30,800 1,313 Climbing FlightAware ADS-B
Mon 08:45:57 PM 41.5768 -73.4403 229° Southwest 440 506 31,600 1,031 Climbing FlightAware ADS-B
Mon 08:46:29 PM 41.5357 -73.5051 230° Southwest 441 507 31,900 369 Climbing FlightAware ADS-B
Mon 08:47:02 PM 41.4915 -73.5736 229° Southwest 440 506 32,000 94 Climbing FlightAware ADS-B
Mon 08:47:33 PM 41.4509 -73.6359 229° Southwest 437 503 32,000  Level FlightAware ADS-B
Mon 08:48:05 PM 41.4071 -73.7024 229° Southwest 436 502 32,000  Level FlightAware ADS-B
Mon 08:48:40 PM 41.3614 -73.7719 229° Southwest 434 499 32,000  Level FlightAware ADS-B
Mon 08:49:10 PM 41.3211 -73.8327 229° Southwest 435 501 32,000  Level FlightAware ADS-B
Mon 08:49:11 PM 41.3200 -73.8344 229° Southwest 435 501 32,000  Level FlightAware ADS-B
Mon 08:49:41 PM 41.2798 -73.8935 228° Southwest 437 503 32,000  Level FlightAware ADS-B
Mon 08:49:44 PM 41.2759 -73.8992 228° Southwest 437 503 32,000  Level FlightAware ADS-B
Mon 08:50:17 PM 41.2313 -73.9648 228° Southwest 438 504 32,000  Level FlightAware ADS-B
Mon 08:50:48 PM 41.1889 -74.0272 228° Southwest 441 507 32,000  Level FlightAware ADS-B
Mon 08:50:58 PM 41.1755 -74.0467 228° Southwest 441 507 32,000 240 Level FlightAware ADS-B
Mon 08:51:13 PM 41.1557 -74.0770 229° Southwest 441 507 32,100 286 Climbing FlightAware ADS-B
Mon 08:51:19 PM 41.1476 -74.0900 230° Southwest 441 507 32,100  Level FlightAware ADS-B
Mon 08:51:32 PM 41.1309 -74.1195 233° Southwest 442 509 32,100 -136 Level FlightAware ADS-B
Mon 08:52:03 PM 41.0970 -74.1898 237° Southwest 443 510 32,000 -97 Descending FlightAware ADS-B
Mon 08:52:34 PM 41.0637 -74.2621 239° Southwest 444 511 32,000  Level FlightAware ADS-B
Mon 08:53:07 PM 41.0291 -74.3363 238° Southwest 446 513 32,000  Level FlightAware ADS-B
Mon 08:53:37 PM 40.9961 -74.4064 238° Southwest 446 513 32,000  Level FlightAware ADS-B
Mon 08:54:07 PM 40.9629 -74.4766 238° Southwest 446 513 32,000  Level FlightAware ADS-B
Mon 08:54:38 PM 40.9298 -74.5464 238° Southwest 445 512 32,000  Level FlightAware ADS-B
Mon 08:55:08 PM 40.8960 -74.6171 238° Southwest 445 512 32,000  Level FlightAware ADS-B
Mon 08:55:40 PM 40.8615 -74.6898 238° Southwest 446 513 32,000  Level FlightAware ADS-B
Mon 08:56:11 PM 40.8276 -74.7609 238° Southwest 449 517 32,000  Level FlightAware ADS-B
Mon 08:56:42 PM 40.7929 -74.8334 238° Southwest 450 518 32,000  Level FlightAware ADS-B
Mon 08:57:12 PM 40.7605 -74.9044 239° Southwest 452 520 32,000  Level FlightAware ADS-B
Mon 08:57:43 PM 40.7280 -74.9776 240° Southwest 453 521 32,000  Level FlightAware ADS-B
Mon 08:58:13 PM 40.6958 -75.0489 239° Southwest 455 524 32,000  Level FlightAware ADS-B
Mon 08:58:43 PM 40.6632 -75.1207 239° Southwest 459 528 32,000  Level FlightAware ADS-B
Mon 08:59:14 PM 40.6292 -75.1953 239° Southwest 463 533 32,000 194 Level FlightAware ADS-B
Mon 08:59:45 PM 40.5954 -75.2692 239° Southwest 466 536 32,200 689 Climbing FlightAware ADS-B
Mon 09:00:15 PM 40.5618 -75.3422 239° Southwest 463 533 32,700 1,000 Climbing FlightAware ADS-B
Mon 09:00:45 PM 40.5286 -75.4147 239° Southwest 458 527 33,200 885 Climbing FlightAware ADS-B
Mon 09:01:16 PM 40.4956 -75.4866 239° Southwest 457 526 33,600 590 Climbing FlightAware ADS-B
Mon 09:01:46 PM 40.4625 -75.5585 239° Southwest 459 528 33,800 393 Climbing FlightAware ADS-B
Mon 09:02:17 PM 40.4289 -75.6314 239° Southwest 462 532 34,000 194 Climbing FlightAware ADS-B
Mon 09:02:48 PM 40.3942 -75.7060 239° Southwest 468 539 34,000  Level FlightAware ADS-B
Mon 09:03:18 PM 40.3597 -75.7801 239° Southwest 475 547 34,000  Level FlightAware ADS-B
Mon 09:03:48 PM 40.3250 -75.8547 239° Southwest 481 554 34,000  Level FlightAware ADS-B
Mon 09:04:19 PM 40.2886 -75.9329 239° Southwest 487 560 34,000  Level FlightAware ADS-B
Mon 09:04:50 PM 40.2528 -76.0097 239° Southwest 493 567 34,000  Level FlightAware ADS-B
Mon 09:05:16 PM 40.2217 -76.0759 238° Southwest 500 575 34,000  Level FlightAware ADS-B
Mon 09:05:46 PM 40.1846 -76.1546 238° Southwest 500 575 34,000  Level FlightAware ADS-B
Mon 09:06:18 PM 40.1462 -76.2360 238° Southwest 497 572 34,000  Level FlightAware ADS-B
Mon 09:06:49 PM 40.1088 -76.3148 238° Southwest 493 567 34,000  Level FlightAware ADS-B
Mon 09:07:21 PM 40.0713 -76.3961 239° Southwest 491 565 34,000  Level FlightAware ADS-B
Mon 09:07:52 PM 40.0356 -76.4739 239° Southwest 491 565 34,000  Level FlightAware ADS-B
Mon 09:08:26 PM 39.9962 -76.5593 239° Southwest 491 565 34,000  Level FlightAware ADS-B
Mon 09:08:56 PM 39.9603 -76.6366 239° Southwest 492 566 34,000  Level FlightAware ADS-B
Mon 09:09:26 PM 39.9247 -76.7129 239° Southwest 491 565 34,000  Level FlightAware ADS-B
Mon 09:09:57 PM 39.8883 -76.7908 239° Southwest 490 564 34,000  Level FlightAware ADS-B
Mon 09:10:28 PM 39.8520 -76.8686 239° Southwest 488 562 34,000 95 Level FlightAware ADS-B
Mon 09:11:00 PM 39.8228 -76.9518 245° Southwest 479 551 34,100  Climbing FlightAware ADS-B
Mon 09:11:31 PM 39.7981 -77.0342 249° West 473 544 34,000 -98 Descending FlightAware ADS-B
Mon 09:12:01 PM 39.7741 -77.1143 249° West 470 541 34,000  Level FlightAware ADS-B
Mon 09:12:32 PM 39.7503 -77.1934 249° West 467 537 34,000  Level FlightAware ADS-B
Mon 09:13:05 PM 39.7239 -77.2811 249° West 466 536 34,000  Level FlightAware ADS-B
Mon 09:13:47 PM 39.6908 -77.3902 249° West 468 539 34,000  Level FlightAware ADS-B
Mon 09:14:19 PM 39.6656 -77.4732 248° West 467 537 34,000  Level FlightAware ADS-B
Mon 09:14:52 PM 39.6420 -77.5530 249° West 466 536 34,000  Level FlightAware ADS-B
Mon 09:15:20 PM 39.6177 -77.6312 248° West 467 537 34,000  Level FlightAware ADS-B
Mon 09:15:57 PM 39.5883 -77.7263 248° West 464 534 34,000  Level FlightAware ADS-B
Mon 09:16:30 PM 39.5616 -77.8126 248° West 461 531 34,000  Level FlightAware ADS-B
Mon 09:17:01 PM 39.5371 -77.8917 248° West 460 529 34,000  Level FlightAware ADS-B
Mon 09:17:34 PM 39.5113 -77.9752 248° West 459 528 34,000  Level FlightAware ADS-B
Mon 09:18:05 PM 39.4869 -78.0537 248° West 459 528 34,000  Level FlightAware ADS-B
Mon 09:18:36 PM 39.4626 -78.1320 248° West 459 528 34,000  Level FlightAware ADS-B
Mon 09:19:06 PM 39.4387 -78.2083 248° West 458 527 34,000  Level FlightAware ADS-B
Mon 09:20:14 PM 39.3860 -78.3760 248° West 461 531 34,000  Level FlightAware ADS-B
Mon 09:20:57 PM 39.3510 -78.4880 248° West 463 533 34,000  Level FlightAware ADS-B
Mon 09:21:33 PM 39.3210 -78.5820 248° West 464 534 34,000  Level FlightAware ADS-B
Mon 09:22:11 PM 39.2900 -78.6790 248° West 464 534 34,000  Level FlightAware ADS-B
Mon 09:22:55 PM 39.2540 -78.7910 247° West 464 534 34,000  Level FlightAware ADS-B
Mon 09:23:35 PM 39.2220 -78.8940 248° West 464 534 34,000  Level FlightAware ADS-B
Mon 09:24:19 PM 39.1860 -79.0040 247° West 462 532 34,000  Level FlightAware ADS-B
Mon 09:25:03 PM 39.1500 -79.1160 248° West 462 532 34,000  Level FlightAware ADS-B
Mon 09:25:44 PM 39.1170 -79.2190 248° West 460 529 34,000  Level FlightAware ADS-B
Mon 09:26:28 PM 39.0800 -79.3330 247° West 461 531 34,000  Level FlightAware ADS-B
Mon 09:27:08 PM 39.0470 -79.4330 247° West 461 531 34,000  Level FlightAware ADS-B
Mon 09:27:52 PM 39.0110 -79.5440 247° West 460 529 34,000  Level FlightAware ADS-B
Mon 09:28:34 PM 38.9760 -79.6480 247° West 458 527 34,000  Level FlightAware ADS-B
Mon 09:29:10 PM 38.9460 -79.7400 247° West 458 527 34,000  Level FlightAware ADS-B
Mon 09:29:55 PM 38.9090 -79.8520 247° West 459 528 34,000  Level FlightAware ADS-B
Mon 09:30:39 PM 38.8720 -79.9630 247° West 459 528 34,000  Level FlightAware ADS-B
Mon 09:31:21 PM 38.8410 -80.0680 249° West 457 526 34,000  Level FlightAware ADS-B
Mon 09:32:01 PM 38.8220 -80.1700 257° West 453 521 34,000  Level FlightAware ADS-B
Mon 09:32:41 PM 38.8160 -80.2810 266° West 450 518 34,000  Level FlightAware ADS-B
Mon 09:33:27 PM 38.8120 -80.4020 268° West 449 517 34,000  Level FlightAware ADS-B
Mon 09:34:08 PM 38.8090 -80.5100 268° West 449 517 34,000  Level FlightAware ADS-B
Mon 09:34:47 PM 38.8060 -80.6140 268° West 448 516 34,000  Level FlightAware ADS-B
Mon 09:35:29 PM 38.8020 -80.7270 267° West 448 516 34,000  Level FlightAware ADS-B
Mon 09:36:13 PM 38.7990 -80.8420 268° West 450 518 34,000  Level FlightAware ADS-B
Mon 09:36:57 PM 38.7950 -80.9580 268° West 450 518 34,000  Level FlightAware ADS-B
Mon 09:37:39 PM 38.7910 -81.0710 267° West 451 519 34,000  Level FlightAware ADS-B
Mon 09:38:20 PM 38.7870 -81.1750 267° West 452 520 34,000  Level FlightAware ADS-B
Mon 09:39:04 PM 38.7830 -81.2970 268° West 453 521 34,000  Level FlightAware ADS-B
Mon 09:39:44 PM 38.7790 -81.4070 267° West 454 522 34,000  Level FlightAware ADS-B
Mon 09:40:25 PM 38.7750 -81.5170 267° West 455 524 34,000  Level FlightAware ADS-B
Mon 09:41:06 PM 38.7710 -81.6260 267° West 456 525 34,000  Level FlightAware ADS-B
Mon 09:41:48 PM 38.7660 -81.7390 267° West 456 525 34,000 70 Level FlightAware ADS-B
Mon 09:42:32 PM 38.7610 -81.8580 267° West 454 522 34,100  Climbing FlightAware ADS-B
Mon 09:43:12 PM 38.7570 -81.9650 267° West 452 520 34,000 -73 Descending FlightAware ADS-B
Mon 09:43:54 PM 38.7520 -82.0750 267° West 451 519 34,000  Level FlightAware ADS-B
Mon 09:44:39 PM 38.7480 -82.1950 268° West 452 520 34,000  Level FlightAware ADS-B
Mon 09:45:19 PM 38.7440 -82.3030 267° West 452 520 34,000  Level FlightAware ADS-B
Mon 09:46:02 PM 38.7400 -82.4170 267° West 453 521 34,000  Level FlightAware ADS-B
Mon 09:46:44 PM 38.7350 -82.5300 267° West 453 521 34,000  Level FlightAware ADS-B
Mon 09:47:20 PM 38.7310 -82.6280 267° West 453 521 34,000  Level FlightAware ADS-B
Mon 09:47:59 PM 38.7270 -82.7270 267° West 453 521 34,000  Level FlightAware ADS-B
Mon 09:48:37 PM 38.7230 -82.8230 267° West 452 520 34,000  Level FlightAware ADS-B
Mon 09:49:24 PM 38.7170 -82.9580 267° West 452 520 34,000  Level FlightAware ADS-B
Mon 09:49:56 PM 38.7130 -83.0390 266° West 452 520 34,000  Level FlightAware ADS-B
Mon 09:50:41 PM 38.7080 -83.1630 267° West 452 520 34,000  Level FlightAware ADS-B
Mon 09:51:17 PM 38.7030 -83.2590 266° West 453 521 34,000  Level FlightAware ADS-B
Mon 09:52:01 PM 38.6980 -83.3660 267° West 453 521 34,000  Level FlightAware ADS-B
Mon 09:52:47 PM 38.6920 -83.5010 267° West 453 521 34,000  Level FlightAware ADS-B
Mon 09:53:27 PM 38.6870 -83.6050 267° West 453 521 34,000  Level FlightAware ADS-B
Mon 09:54:09 PM 38.6810 -83.7170 266° West 453 521 34,000  Level FlightAware ADS-B
Mon 09:54:47 PM 38.6760 -83.8200 266° West 450 518 34,000  Level FlightAware ADS-B
Mon 09:55:43 PM 38.6680 -83.9680 266° West 450 518 34,000  Level FlightAware ADS-B
Mon 09:56:23 PM 38.6620 -84.0750 266° West 450 518 34,000  Level FlightAware ADS-B
Mon 09:56:56 PM 38.6580 -84.1510 266° West 450 518 34,000  Level FlightAware ADS-B
Mon 09:57:42 PM 38.6530 -84.2550 267° West 450 518 34,000  Level FlightAware ADS-B
Mon 09:58:21 PM 38.6540 -84.3780 271° West 34,000  Level FlightAware ADS-B
Mon 09:58:52 PM 38.6580 -84.4500 274° West 449 517 34,000  Level FlightAware ADS-B
Mon 09:59:41 PM 38.6660 -84.5930 274° West 449 517 34,000  Level FlightAware ADS-B
Mon 10:01:04 PM 38.6770 -84.7770 274° West 443 510 34,000  Level FlightAware ADS-B
Mon 10:01:46 PM 38.6850 -84.9230 274° West 444 511 34,000  Level FlightAware ADS-B
Mon 10:02:25 PM 38.6910 -85.0240 274° West 445 512 34,000  Level FlightAware ADS-B
Mon 10:03:11 PM 38.6970 -85.1440 274° West 445 512 34,000  Level FlightAware ADS-B
Mon 10:03:51 PM 38.7030 -85.2490 274° West 445 512 34,000  Level FlightAware ADS-B
Mon 10:04:35 PM 38.7090 -85.3660 274° West 443 510 34,000  Level FlightAware ADS-B
Mon 10:05:14 PM 38.7140 -85.4680 274° West 442 509 34,000  Level FlightAware ADS-B
Mon 10:05:59 PM 38.7200 -85.5870 274° West 441 507 34,000  Level FlightAware ADS-B
Mon 10:06:29 PM 38.7240 -85.6630 274° West 441 507 34,000  Level FlightAware ADS-B
Mon 10:07:13 PM 38.7290 -85.7780 273° West 441 507 34,000  Level FlightAware ADS-B
Mon 10:07:57 PM 38.7350 -85.8900 274° West 443 510 34,000  Level FlightAware ADS-B
Mon 10:08:37 PM 38.7400 -85.9970 273° West 444 511 34,000  Level FlightAware ADS-B
Mon 10:09:19 PM 38.7450 -86.1060 273° West 445 512 34,000  Level FlightAware ADS-B
Mon 10:10:03 PM 38.7500 -86.2250 273° West 447 514 34,000  Level FlightAware ADS-B
Mon 10:10:43 PM 38.7550 -86.3300 274° West 446 513 34,000  Level FlightAware ADS-B
Mon 10:11:18 PM 38.7580 -86.4170 273° West 445 512 34,000  Level FlightAware ADS-B
Mon 10:12:00 PM 38.7630 -86.5290 273° West 445 512 34,000  Level FlightAware ADS-B
Mon 10:12:42 PM 38.7680 -86.6390 273° West 448 516 34,000  Level FlightAware ADS-B
Mon 10:13:22 PM 38.7720 -86.7490 273° West 448 516 34,000  Level FlightAware ADS-B
Mon 10:13:59 PM 38.7760 -86.8470 273° West 449 517 34,000  Level FlightAware ADS-B
Mon 10:14:43 PM 38.7800 -86.9640 273° West 447 514 34,000  Level FlightAware ADS-B
Mon 10:15:29 PM 38.7850 -87.0810 273° West 444 511 34,000  Level FlightAware ADS-B
Mon 10:16:30 PM 38.7910 -87.2440 273° West 443 510 34,000  Level FlightAware ADS-B
Mon 10:17:11 PM 38.7950 -87.3540 273° West 443 510 34,000  Level FlightAware ADS-B
Mon 10:17:46 PM 38.7980 -87.4430 273° West 444 511 34,000  Level FlightAware ADS-B
Mon 10:18:26 PM 38.8010 -87.5500 272° West 445 512 34,000  Level FlightAware ADS-B
Mon 10:19:11 PM 38.8050 -87.6690 273° West 445 512 34,000  Level FlightAware ADS-B
Mon 10:19:51 PM 38.8080 -87.7730 272° West 446 513 34,000  Level FlightAware ADS-B
Mon 10:20:35 PM 38.8120 -87.8870 273° West 447 514 34,000  Level FlightAware ADS-B
Mon 10:21:14 PM 38.8150 -87.9920 272° West 446 513 34,000  Level FlightAware ADS-B
Mon 10:21:59 PM 38.8180 -88.1100 272° West 445 512 34,000  Level FlightAware ADS-B
Mon 10:22:34 PM 38.8210 -88.2010 272° West 444 511 34,000  Level FlightAware ADS-B
Mon 10:23:17 PM 38.8230 -88.3040 271° West 444 511 34,000  Level FlightAware ADS-B
Mon 10:23:57 PM 38.8260 -88.4180 272° West 442 509 34,000  Level FlightAware ADS-B
Mon 10:24:32 PM 38.8290 -88.5110 272° West 442 509 34,000  Level FlightAware ADS-B
Mon 10:25:12 PM 38.8310 -88.6160 271° West 442 509 34,000  Level FlightAware ADS-B
Mon 10:25:49 PM 38.8330 -88.7100 272° West 443 510 34,000  Level FlightAware ADS-B
Mon 10:26:38 PM 38.8360 -88.8360 272° West 442 509 34,000  Level FlightAware ADS-B
Mon 10:27:21 PM 38.8390 -88.9490 272° West 441 507 34,000  Level FlightAware ADS-B
Mon 10:28:00 PM 38.8410 -89.0550 271° West 440 506 34,000  Level FlightAware ADS-B
Mon 10:28:42 PM 38.8430 -89.1630 271° West 439 505 34,000  Level FlightAware ADS-B
Mon 10:29:22 PM 38.8450 -89.2650 271° West 439 505 34,000  Level FlightAware ADS-B
Mon 10:29:55 PM 38.8460 -89.3520 271° West 440 506 34,000  Level FlightAware ADS-B
Mon 10:30:44 PM 38.8490 -89.4800 272° West 443 510 34,000  Level FlightAware ADS-B
Mon 10:31:22 PM 38.8500 -89.5790 271° West 445 512 34,000  Level FlightAware ADS-B
Mon 10:31:58 PM 38.8520 -89.6730 272° West 446 513 34,000  Level FlightAware ADS-B
Mon 10:32:43 PM 38.8530 -89.7940 271° West 446 513 34,000  Level FlightAware ADS-B
Mon 10:33:19 PM 38.8540 -89.8850 271° West 445 512 34,000  Level FlightAware ADS-B
Mon 10:34:03 PM 38.8560 -90.0020 271° West 443 510 34,000  Level FlightAware ADS-B
Mon 10:34:50 PM 38.8570 -90.1250 271° West 440 506 34,000  Level FlightAware ADS-B
Mon 10:35:26 PM 38.8580 -90.2210 271° West 439 505 34,000  Level FlightAware ADS-B
Mon 10:36:11 PM 38.8590 -90.3380 271° West 439 505 34,000  Level FlightAware ADS-B
Mon 10:36:47 PM 38.8600 -90.4280 271° West 440 506 34,000  Level FlightAware ADS-B
Mon 10:37:27 PM 38.8540 -90.5330 266° West 441 507 34,000  Level FlightAware ADS-B
Mon 10:38:11 PM 38.8390 -90.6490 261° West 443 510 34,000  Level FlightAware ADS-B
Mon 10:38:43 PM 38.8290 -90.7310 261° West 443 510 34,000  Level FlightAware ADS-B
Mon 10:39:28 PM 38.8130 -90.8470 260° West 442 509 34,000  Level FlightAware ADS-B
Mon 10:40:10 PM 38.7990 -90.9520 260° West 443 510 34,000  Level FlightAware ADS-B
Mon 10:40:51 PM 38.7850 -91.0600 261° West 443 510 34,000  Level FlightAware ADS-B
Mon 10:41:33 PM 38.7700 -91.1710 260° West 441 507 34,000  Level FlightAware ADS-B
Mon 10:42:10 PM 38.7580 -91.2620 260° West 442 509 34,000  Level FlightAware ADS-B
Mon 10:42:52 PM 38.7430 -91.3750 260° West 442 509 34,000  Level FlightAware ADS-B
Mon 10:43:29 PM 38.7310 -91.4560 259° West 442 509 34,000  Level FlightAware ADS-B
Mon 10:44:31 PM 38.7130 -91.5920 260° West 442 509 34,000  Level FlightAware ADS-B
Mon 10:45:08 PM 38.7010 -91.6740 259° West 442 509 34,000  Level FlightAware ADS-B
Mon 10:45:44 PM 38.6910 -91.7530 261° West 442 509 34,000  Level FlightAware ADS-B
Mon 10:46:21 PM 38.6790 -91.8340 259° West 442 509 34,000  Level FlightAware ADS-B
Mon 10:47:09 PM 38.6650 -91.9390 260° West 442 509 34,000  Level FlightAware ADS-B
Mon 10:47:46 PM 38.6540 -92.0200 260° West 442 509 34,000  Level FlightAware ADS-B
Mon 10:48:34 PM 38.6390 -92.1250 260° West 442 509 34,000  Level FlightAware ADS-B
Mon 10:49:12 PM 38.6050 -92.3450 259° West 440 506 34,000  Level FlightAware ADS-B
Mon 10:49:51 PM 38.5920 -92.4300 259° West 440 506 34,000  Level FlightAware ADS-B
Mon 10:50:36 PM 38.5730 -92.5640 260° West 441 507 34,000  Level FlightAware ADS-B
Mon 10:51:22 PM 38.5560 -92.6810 260° West 440 506 34,000  Level FlightAware ADS-B
Mon 10:52:06 PM 38.5390 -92.7920 259° West 441 507 34,000  Level FlightAware ADS-B
Mon 10:52:46 PM 38.5230 -92.8970 259° West 443 510 34,000  Level FlightAware ADS-B
Mon 10:53:30 PM 38.5060 -93.0100 259° West 442 509 34,000  Level FlightAware ADS-B
Mon 10:54:10 PM 38.4910 -93.1130 259° West 443 510 34,000  Level FlightAware ADS-B
Mon 10:54:53 PM 38.4740 -93.2220 259° West 443 510 34,000  Level FlightAware ADS-B
Mon 10:55:33 PM 38.4580 -93.3240 259° West 443 510 34,000  Level FlightAware ADS-B
Mon 10:56:17 PM 38.4400 -93.4380 259° West 443 510 34,000  Level FlightAware ADS-B
Mon 10:56:55 PM 38.4260 -93.5320 259° West 442 509 34,000  Level FlightAware ADS-B
Mon 10:57:35 PM 38.4100 -93.6350 259° West 442 509 34,000  Level FlightAware ADS-B
Mon 10:58:17 PM 38.3930 -93.7400 258° West 443 510 34,000  Level FlightAware ADS-B
Mon 10:58:57 PM 38.3830 -93.8440 263° West 445 512 34,000  Level FlightAware ADS-B
Mon 10:59:33 PM 38.3920 -93.9400 277° West 444 511 34,000  Level FlightAware ADS-B
Mon 11:00:00 PM 38.3979 -94.0100 276° West 34,000  Level FlightAware ADS-B
Mon 11:00:03 PM 38.3987 -94.0187 277° West 444 511 34,000  Level FlightAware ADS-B
Mon 11:00:34 PM 38.4056 -94.0998 276° West 441 507 34,000  Level FlightAware ADS-B
Mon 11:01:04 PM 38.4115 -94.1770 276° West 440 506 34,000  Level FlightAware ADS-B
Mon 11:01:39 PM 38.4184 -94.2672 276° West 439 505 34,000  Level FlightAware ADS-B
Mon 11:02:10 PM 38.4245 -94.3459 276° West 440 506 34,000  Level FlightAware ADS-B
Mon 11:02:40 PM 38.4306 -94.4237 276° West 440 506 34,000  Level FlightAware ADS-B
Mon 11:03:11 PM 38.4366 -94.5022 276° West 440 506 34,000  Level FlightAware ADS-B
Mon 11:03:41 PM 38.4424 -94.5795 275° West 439 505 34,000  Level FlightAware ADS-B
Mon 11:04:11 PM 38.4484 -94.6573 276° West 437 503 34,000  Level FlightAware ADS-B
Mon 11:04:41 PM 38.4542 -94.7347 275° West 436 502 34,000  Level FlightAware ADS-B
Mon 11:05:14 PM 38.4603 -94.8181 275° West 436 502 34,000  Level FlightAware ADS-B
Mon 11:05:53 PM 38.4670 -94.9140 275° West 435 501 34,000  Level FlightAware ADS-B
Mon 11:06:33 PM 38.4750 -95.0150 276° West 436 502 34,000  Level FlightAware ADS-B
Mon 11:07:15 PM 38.4820 -95.1250 275° West 438 504 34,000  Level FlightAware ADS-B
Mon 11:07:56 PM 38.4900 -95.2280 276° West 440 506 34,000  Level FlightAware ADS-B
Mon 11:08:32 PM 38.4960 -95.3260 275° West 442 509 34,000  Level FlightAware ADS-B
Mon 11:09:10 PM 38.5030 -95.4200 275° West 443 510 34,000  Level FlightAware ADS-B
Mon 11:09:32 PM 38.5070 -95.4821 275° West 444 511 34,000  Level FlightAware ADS-B
Mon 11:10:03 PM 38.5125 -95.5631 275° West 445 512 34,000 417 Level FlightAware ADS-B
Mon 11:10:44 PM 38.5195 -95.6691 275° West 443 510 34,500 750 Climbing FlightAware ADS-B
Mon 11:11:15 PM 38.5249 -95.7503 275° West 442 509 34,900 787 Climbing FlightAware ADS-B
Mon 11:11:45 PM 38.5300 -95.8276 275° West 440 506 35,300 700 Climbing FlightAware ADS-B
Mon 11:12:15 PM 38.5352 -95.9064 275° West 440 506 35,600 575 Climbing FlightAware ADS-B
Mon 11:12:58 PM 38.5420 -96.0140 275° West 434 499 36,000 364 Climbing FlightAware ADS-B
Mon 11:13:21 PM 38.5459 -96.0731 275° West 437 503 36,000  Level FlightAware ADS-B
Mon 11:13:55 PM 38.5512 -96.1599 274° West 435 501 36,000  Level FlightAware ADS-B
Mon 11:14:50 PM 38.5598 -96.3026 274° West 437 503 36,000  Level FlightAware ADS-B
Mon 11:15:21 PM 38.5644 -96.3810 274° West 439 505 36,000  Level FlightAware ADS-B
Mon 11:16:00 PM 38.5704 -96.4822 274° West 441 507 36,000  Level FlightAware ADS-B
Mon 11:16:35 PM 38.5758 -96.5739 274° West 442 509 36,000  Level FlightAware ADS-B
Mon 11:17:25 PM 38.5833 -96.7026 274° West 444 511 36,000  Level FlightAware ADS-B
Mon 11:17:56 PM 38.5879 -96.7834 274° West 444 511 36,000  Level FlightAware ADS-B
Mon 11:18:45 PM 38.5951 -96.9112 274° West 443 510 36,000  Level FlightAware ADS-B
Mon 11:19:15 PM 38.5995 -96.9908 274° West 444 511 36,000  Level FlightAware ADS-B
Mon 11:19:49 PM 38.6041 -97.0778 274° West 444 511 36,000  Level FlightAware ADS-B
Mon 11:20:24 PM 38.6090 -97.1700 274° West 444 511 36,000  Level FlightAware ADS-B
Mon 11:20:34 PM 38.6104 -97.1962 274° West 444 511 36,000  Level FlightAware ADS-B
Mon 11:21:04 PM 38.6146 -97.2748 274° West 444 511 36,000  Level FlightAware ADS-B
Mon 11:21:35 PM 38.6187 -97.3547 274° West 444 511 36,000  Level FlightAware ADS-B
Mon 11:22:05 PM 38.6228 -97.4337 274° West 444 511 36,000  Level FlightAware ADS-B
Mon 11:22:35 PM 38.6268 -97.5130 274° West 445 512 36,000  Level FlightAware ADS-B
Mon 11:23:07 PM 38.6309 -97.5958 274° West 445 512 36,000  Level FlightAware ADS-B
Mon 11:23:37 PM 38.6348 -97.6750 274° West 445 512 36,000  Level FlightAware ADS-B
Mon 11:24:07 PM 38.6387 -97.7543 274° West 445 512 36,000  Level FlightAware ADS-B
Mon 11:24:37 PM 38.6425 -97.8328 274° West 445 512 36,000  Level FlightAware ADS-B
Mon 11:25:07 PM 38.6462 -97.9115 273° West 445 512 36,000  Level FlightAware ADS-B
Mon 11:25:38 PM 38.6499 -97.9932 273° West 445 512 36,000  Level FlightAware ADS-B
Mon 11:26:09 PM 38.6535 -98.0724 273° West 444 511 36,000  Level FlightAware ADS-B
Mon 11:26:40 PM 38.6571 -98.1526 273° West 443 510 36,000  Level FlightAware ADS-B
Mon 11:27:10 PM 38.6607 -98.2320 273° West 441 507 36,000  Level FlightAware ADS-B
Mon 11:27:41 PM 38.6641 -98.3129 273° West 439 505 36,000  Level FlightAware ADS-B
Mon 11:28:13 PM 38.6676 -98.3943 273° West 439 505 36,000  Level FlightAware ADS-B
Mon 11:30:02 PM 38.6780 -98.6440 273° West 437 503 36,000  Level FlightAware ADS-B
Mon 11:30:38 PM 38.6810 -98.7230 273° West 437 503 36,000  Level FlightAware ADS-B
Mon 11:31:16 PM 38.6850 -98.8070 274° West 437 503 36,000  Level FlightAware ADS-B
Mon 11:32:04 PM 38.6890 -98.9130 273° West 437 503 36,000  Level FlightAware ADS-B
Mon 11:32:40 PM 38.6920 -98.9920 273° West 437 503 36,000  Level FlightAware ADS-B
Mon 11:33:27 PM 38.6960 -99.0950 273° West 437 503 36,000  Level FlightAware ADS-B
Mon 11:34:39 PM 38.7030 -99.2530 273° West 437 503 36,000  Level FlightAware ADS-B
Mon 11:35:27 PM 38.7070 -99.3590 273° West 437 503 36,000  Level FlightAware ADS-B
Mon 11:36:28 PM 38.7130 -99.4930 273° West 437 503 36,000  Level FlightAware ADS-B
Mon 11:37:16 PM 38.7170 -99.5990 273° West 437 503 36,000  Level FlightAware ADS-B
Mon 11:37:52 PM 38.7200 -99.6780 273° West 437 503 36,000  Level FlightAware ADS-B
Mon 11:38:28 PM 38.7230 -99.7570 273° West 437 503 36,000  Level FlightAware ADS-B
Mon 11:39:09 PM 38.7258 -100.0369 273° West 424 488 36,000  Level Denver Center
Mon 11:40:10 PM 38.7300 -100.2058 272° West 427 491 36,000  Level Denver Center
Mon 11:41:12 PM 38.7342 -100.3517 272° West 431 496 36,000 49 Level Denver Center
Mon 11:42:13 PM 38.7386 -100.5256 272° West 438 504 36,100 49 Climbing Denver Center
Mon 11:43:14 PM 38.7394 -100.6767 270° West 443 510 36,100  Level Denver Center
Mon 11:48:40 PM 38.6624 -101.5320 270° West 438 504 36,100  Level FlightAware ADS-B
Mon 11:49:10 PM 38.6633 -101.6100 271° West 436 502 36,100 -100 Level FlightAware ADS-B
Mon 11:49:40 PM 38.6662 -101.6880 273° West 433 498 36,000 -98 Descending FlightAware ADS-B
Mon 11:50:11 PM 38.6684 -101.7650 272° West 433 498 36,000  Level FlightAware ADS-B
Mon 11:50:41 PM 38.6701 -101.8420 272° West 434 499 36,000  Level FlightAware ADS-B
Mon 11:51:12 PM 38.6716 -101.9210 271° West 435 501 36,000  Level FlightAware ADS-B
Mon 11:51:42 PM 38.6732 -101.9990 272° West 436 502 36,000  Level FlightAware ADS-B
Mon 11:52:13 PM 38.6747 -102.0780 271° West 437 503 36,000  Level FlightAware ADS-B
Mon 11:52:43 PM 38.6761 -102.1560 271° West 438 504 36,000  Level FlightAware ADS-B
Mon 11:53:13 PM 38.6774 -102.2350 271° West 439 505 36,000  Level FlightAware ADS-B
Mon 11:53:43 PM 38.6787 -102.3130 271° West 439 505 36,000 97 Level FlightAware ADS-B
Mon 11:54:15 PM 38.6800 -102.3930 271° West 437 503 36,100 94 Climbing FlightAware ADS-B
Mon 11:54:47 PM 38.6812 -102.4760 271° West 434 499 36,100 -97 Level FlightAware ADS-B
Mon 11:55:17 PM 38.6824 -102.5520 271° West 432 497 36,000 -100 Descending FlightAware ADS-B
Mon 11:55:47 PM 38.6835 -102.6290 271° West 431 496 36,000  Level FlightAware ADS-B
Mon 11:56:19 PM 38.6846 -102.7120 271° West 432 497 36,000  Level FlightAware ADS-B
Mon 11:56:51 PM 38.6856 -102.7920 271° West 433 498 36,000  Level FlightAware ADS-B
Mon 11:57:21 PM 38.6864 -102.8690 271° West 434 499 36,000  Level FlightAware ADS-B
Mon 11:57:51 PM 38.6873 -102.9470 271° West 434 499 36,000  Level FlightAware ADS-B
Mon 11:58:21 PM 38.6881 -103.0240 271° West 435 501 36,000  Level FlightAware ADS-B
Mon 11:58:52 PM 38.6888 -103.1030 271° West 434 499 36,000  Level FlightAware ADS-B
Mon 11:59:22 PM 38.6895 -103.1810 271° West 433 498 36,000  Level FlightAware ADS-B
Mon 11:59:53 PM 38.6902 -103.2590 271° West 434 499 36,000  Level FlightAware ADS-B
Tue 12:00:23 AM 38.6908 -103.3360 271° West 433 498 36,000  Level FlightAware ADS-B
Tue 12:00:54 AM 38.6915 -103.4140 271° West 433 498 36,000  Level FlightAware ADS-B
Tue 12:01:24 AM 38.6922 -103.4910 271° West 434 499 36,000  Level FlightAware ADS-B
Tue 12:01:54 AM 38.6927 -103.5700 270° West 436 502 36,000  Level FlightAware ADS-B
Tue 12:02:25 AM 38.6930 -103.6480 270° West 436 502 36,000  Level FlightAware ADS-B
Tue 12:02:55 AM 38.6934 -103.7270 270° West 437 503 36,000  Level FlightAware ADS-B
Tue 12:03:26 AM 38.6936 -103.8060 270° West 438 504 36,000  Level FlightAware ADS-B
Tue 12:03:56 AM 38.6938 -103.8840 270° West 436 502 36,000 98 Level FlightAware ADS-B
Tue 12:04:27 AM 38.6941 -103.9620 270° West 433 498 36,100  Climbing FlightAware ADS-B
Tue 12:04:58 AM 38.6942 -104.0410 270° West 432 497 36,000 -98 Descending FlightAware ADS-B
Tue 12:05:28 AM 38.6943 -104.1180 270° West 429 494 36,000  Level FlightAware ADS-B
Tue 12:05:59 AM 38.6943 -104.1950 270° West 428 493 36,000  Level FlightAware ADS-B
Tue 12:06:29 AM 38.6943 -104.2710 270° West 429 494 36,000  Level FlightAware ADS-B
Tue 12:06:59 AM 38.6943 -104.3470 270° West 431 496 36,000  Level FlightAware ADS-B
Tue 12:07:35 AM 38.6941 -104.4400 270° West 432 497 36,000  Level FlightAware ADS-B
Tue 12:08:05 AM 38.6939 -104.5160 270° West 431 496 36,000  Level FlightAware ADS-B
Tue 12:08:41 AM 38.6937 -104.6090 270° West 431 496 36,000  Level FlightAware ADS-B
Tue 12:09:13 AM 38.6934 -104.6890 270° West 431 496 36,000  Level FlightAware ADS-B
Tue 12:09:43 AM 38.6931 -104.7660 270° West 429 494 36,000  Level FlightAware ADS-B
Tue 12:10:14 AM 38.6927 -104.8450 270° West 427 491 36,000  Level FlightAware ADS-B
Tue 12:10:45 AM 38.6922 -104.9210 270° West 428 493 36,000  Level FlightAware ADS-B
Tue 12:11:15 AM 38.6918 -104.9980 270° West 426 490 36,000  Level FlightAware ADS-B
Tue 12:11:45 AM 38.6913 -105.0740 270° West 426 490 36,000  Level FlightAware ADS-B
Tue 12:12:16 AM 38.6907 -105.1510 269° West 426 490 36,000  Level FlightAware ADS-B
Tue 12:12:46 AM 38.6901 -105.2260 269° West 426 490 36,000  Level FlightAware ADS-B
Tue 12:13:16 AM 38.6894 -105.3020 269° West 426 490 36,000  Level FlightAware ADS-B
Tue 12:13:46 AM 38.6886 -105.3790 269° West 425 489 36,000  Level FlightAware ADS-B
Tue 12:14:17 AM 38.6878 -105.4550 269° West 427 491 36,000  Level FlightAware ADS-B
Tue 12:14:47 AM 38.6870 -105.5300 269° West 426 490 36,000  Level FlightAware ADS-B
Tue 12:15:17 AM 38.6861 -105.6060 269° West 426 490 36,000  Level FlightAware ADS-B
Tue 12:15:48 AM 38.6852 -105.6830 269° West 423 487 36,000  Level FlightAware ADS-B
Tue 12:16:18 AM 38.6842 -105.7580 269° West 423 487 36,000  Level FlightAware ADS-B
Tue 12:16:55 AM 38.6830 -105.8510 269° West 420 483 36,000  Level FlightAware ADS-B
Tue 12:17:27 AM 38.6818 -105.9300 269° West 419 482 36,000  Level FlightAware ADS-B
Tue 12:17:59 AM 38.6807 -106.0090 269° West 421 484 36,000  Level FlightAware ADS-B
Tue 12:18:30 AM 38.6795 -106.0850 269° West 421 484 36,000  Level FlightAware ADS-B
Tue 12:19:00 AM 38.6783 -106.1600 269° West 421 484 36,000  Level FlightAware ADS-B
Tue 12:19:38 AM 38.6768 -106.2540 269° West 419 482 36,000  Level FlightAware ADS-B
Tue 12:20:18 AM 38.6750 -106.3550 269° West 419 482 36,000  Level FlightAware ADS-B
Tue 12:20:52 AM 38.6734 -106.4390 269° West 419 482 36,000  Level FlightAware ADS-B
Tue 12:21:23 AM 38.6718 -106.5140 268° West 419 482 36,000  Level FlightAware ADS-B
Tue 12:21:53 AM 38.6703 -106.5890 269° West 417 480 36,000  Level FlightAware ADS-B
Tue 12:22:34 AM 38.6683 -106.6890 269° West 418 481 36,000  Level FlightAware ADS-B
Tue 12:23:05 AM 38.6666 -106.7650 268° West 418 481 36,000  Level FlightAware ADS-B
Tue 12:23:40 AM 38.6647 -106.8510 268° West 418 481 36,000  Level FlightAware ADS-B
Tue 12:24:10 AM 38.6630 -106.9270 268° West 420 483 36,000  Level FlightAware ADS-B
Tue 12:25:04 AM 38.6598 -107.0620 268° West 421 484 36,000  Level FlightAware ADS-B
Tue 12:25:43 AM 38.6574 -107.1570 268° West 421 484 36,000  Level FlightAware ADS-B
Tue 12:26:15 AM 38.6554 -107.2370 268° West 421 484 36,000  Level FlightAware ADS-B
Tue 12:26:45 AM 38.6535 -107.3110 268° West 421 484 36,000  Level FlightAware ADS-B
Tue 12:27:15 AM 38.6515 -107.3860 268° West 419 482 36,000  Level FlightAware ADS-B
Tue 12:27:46 AM 38.6494 -107.4610 268° West 418 481 36,000  Level FlightAware ADS-B
Tue 12:28:47 AM 38.6450 -107.6090 268° West 415 478 36,000  Level FlightAware ADS-B
Tue 12:29:29 AM 38.6420 -107.7140 268° West 417 480 36,000  Level FlightAware ADS-B
Tue 12:30:10 AM 38.6390 -107.8160 268° West 417 480 36,000  Level FlightAware ADS-B
Tue 12:30:46 AM 38.6360 -107.9040 268° West 417 480 36,000  Level FlightAware ADS-B
Tue 12:31:30 AM 38.6330 -108.0130 268° West 418 481 36,000  Level FlightAware ADS-B
Tue 12:32:11 AM 38.6300 -108.1130 268° West 417 480 36,000  Level FlightAware ADS-B
Tue 12:32:47 AM 38.6270 -108.2020 268° West 417 480 36,000  Level FlightAware ADS-B
Tue 12:33:27 AM 38.6230 -108.2960 267° West 416 479 36,000  Level FlightAware ADS-B
Tue 12:34:10 AM 38.6190 -108.4050 267° West 415 478 36,000  Level FlightAware ADS-B
Tue 12:34:49 AM 38.6160 -108.5020 268° West 416 479 36,000  Level FlightAware ADS-B
Tue 12:35:32 AM 38.6120 -108.6060 267° West 416 479 36,000  Level FlightAware ADS-B
Tue 12:36:13 AM 38.6080 -108.7050 267° West 416 479 36,000  Level FlightAware ADS-B
Tue 12:36:58 AM 38.6040 -108.8180 267° West 415 478 36,000  Level FlightAware ADS-B
Tue 12:37:34 AM 38.6000 -108.9070 267° West 417 480 36,000  Level FlightAware ADS-B
Tue 12:38:15 AM 38.5960 -109.0040 267° West 420 483 36,000  Level FlightAware ADS-B
Tue 12:38:55 AM 38.5920 -109.1060 267° West 420 483 36,000 80 Level FlightAware ADS-B
Tue 12:39:30 AM 38.5890 -109.1900 267° West 417 480 36,100  Climbing FlightAware ADS-B
Tue 12:40:12 AM 38.5840 -109.2950 267° West 415 478 36,000 -72 Descending FlightAware ADS-B
Tue 12:40:53 AM 38.5800 -109.3960 267° West 415 478 36,000  Level FlightAware ADS-B
Tue 12:41:36 AM 38.5750 -109.5010 267° West 418 481 36,000  Level FlightAware ADS-B
Tue 12:42:19 AM 38.5700 -109.6060 267° West 419 482 36,000  Level FlightAware ADS-B
Tue 12:43:00 AM 38.5660 -109.7050 267° West 421 484 36,000  Level FlightAware ADS-B
Tue 12:43:42 AM 38.5600 -109.8130 266° West 422 486 36,000 72 Level FlightAware ADS-B
Tue 12:44:23 AM 38.5560 -109.9140 267° West 420 483 36,100  Climbing FlightAware ADS-B
Tue 12:44:57 AM 38.5510 -109.9980 266° West 418 481 36,000 -74 Descending FlightAware ADS-B
Tue 12:45:44 AM 38.5460 -110.1140 267° West 417 480 36,000  Level FlightAware ADS-B
Tue 12:46:23 AM 38.5410 -110.2100 266° West 416 479 36,000  Level FlightAware ADS-B
Tue 12:47:08 AM 38.5350 -110.3190 266° West 417 480 36,000  Level FlightAware ADS-B
Tue 12:47:48 AM 38.5300 -110.4180 266° West 417 480 36,000  Level FlightAware ADS-B
Tue 12:48:29 AM 38.5240 -110.5200 266° West 417 480 36,000  Level FlightAware ADS-B
Tue 12:49:12 AM 38.5190 -110.6250 267° West 417 480 36,000  Level FlightAware ADS-B
Tue 12:49:56 AM 38.5130 -110.7310 266° West 419 482 36,000  Level FlightAware ADS-B
Tue 12:50:36 AM 38.5070 -110.8310 266° West 419 482 36,000  Level FlightAware ADS-B
Tue 12:51:18 AM 38.5010 -110.9330 266° West 419 482 36,000  Level FlightAware ADS-B
Tue 12:51:58 AM 38.4970 -111.0320 267° West 419 482 36,000  Level FlightAware ADS-B
Tue 12:52:42 AM 38.4980 -111.1410 271° West 419 482 36,000  Level FlightAware ADS-B
Tue 12:53:23 AM 38.4984 -111.2440 270° West 418 481 36,000  Level FlightAware ADS-B
Tue 12:54:08 AM 38.4981 -111.3540 270° West 418 481 36,000  Level FlightAware ADS-B
Tue 12:54:42 AM 38.4978 -111.4370 270° West 417 480 36,000  Level FlightAware ADS-B
Tue 12:55:15 AM 38.4974 -111.5190 270° West 418 481 36,000  Level FlightAware ADS-B
Tue 12:55:49 AM 38.4971 -111.6030 270° West 421 484 36,000  Level FlightAware ADS-B
Tue 12:56:20 AM 38.4966 -111.6780 270° West 420 483 36,000  Level FlightAware ADS-B
Tue 12:56:51 AM 38.4961 -111.7570 270° West 421 484 36,000  Level FlightAware ADS-B
Tue 12:57:35 AM 38.4953 -111.8650 269° West 421 484 36,000  Level FlightAware ADS-B
Tue 12:58:06 AM 38.4947 -111.9420 269° West 421 484 36,000  Level FlightAware ADS-B
Tue 12:58:37 AM 38.4941 -112.0180 269° West 420 483 36,000  Level FlightAware ADS-B
Tue 12:59:18 AM 38.4931 -112.1200 269° West 420 483 36,000  Level FlightAware ADS-B
Tue 12:59:50 AM 38.4920 -112.1770 269° West 420 483 36,000  Level FlightAware ADS-B
Tue 01:00:05 AM 38.4919 -112.2340 270° West 420 483 36,000  Level FlightAware ADS-B
Tue 01:00:36 AM 38.4910 -112.3110 269° West 419 482 36,000  Level FlightAware ADS-B
Tue 01:01:16 AM 38.4899 -112.4110 269° West 419 482 36,000  Level FlightAware ADS-B
Tue 01:01:46 AM 38.4889 -112.4850 269° West 416 479 36,000  Level FlightAware ADS-B
Tue 01:02:18 AM 38.4878 -112.5630 269° West 416 479 36,000  Level FlightAware ADS-B
Tue 01:03:08 AM 38.4862 -112.6830 269° West 416 479 36,000  Level FlightAware ADS-B
Tue 01:03:42 AM 38.4849 -112.7660 269° West 415 478 36,000  Level FlightAware ADS-B
Tue 01:04:19 AM 38.4835 -112.8590 269° West 415 478 36,000  Level FlightAware ADS-B
Tue 01:04:50 AM 38.4823 -112.9340 269° West 414 476 36,000  Level FlightAware ADS-B
Tue 01:05:36 AM 38.4814 -113.0389 269° West 413 475 36,000  Level Salt Lake Center
Tue 01:06:37 AM 38.4789 -113.1836 269° West 413 475 36,000  Level Salt Lake Center
Tue 01:07:39 AM 38.4756 -113.3289 268° West 412 474 36,000  Level Salt Lake Center
Tue 01:08:40 AM 38.4722 -113.4739 268° West 413 475 36,000  Level Salt Lake Center
Tue 01:09:41 AM 38.4692 -113.6192 269° West 413 475 36,000  Level Salt Lake Center
Tue 01:10:42 AM 38.4661 -113.7642 269° West 411 473 36,000  Level Salt Lake Center
Tue 01:11:43 AM 38.4633 -113.9106 269° West 414 476 36,000  Level Salt Lake Center
Tue 01:12:45 AM 38.4586 -114.0583 268° West 418 481 36,000  Level Salt Lake Center
Tue 01:17:54 AM 38.4350 -114.8390 268° West 413 475 36,000  Level FlightAware ADS-B
Tue 01:18:32 AM 38.4310 -114.9180 266° West 413 475 36,000  Level FlightAware ADS-B
Tue 01:19:11 AM 38.4280 -114.9980 267° West 413 475 36,000  Level FlightAware ADS-B
Tue 01:19:57 AM 38.4240 -115.0940 267° West 413 475 36,000  Level FlightAware ADS-B
Tue 01:20:34 AM 38.4210 -115.1700 267° West 413 475 36,000  Level FlightAware ADS-B
Tue 01:21:10 AM 38.4180 -115.2450 267° West 413 475 36,000  Level FlightAware ADS-B
Tue 01:21:57 AM 38.4140 -115.3420 267° West 413 475 36,000  Level FlightAware ADS-B
Tue 01:22:33 AM 38.4110 -115.4170 267° West 413 475 36,000  Level FlightAware ADS-B
Tue 01:23:11 AM 38.4080 -115.4950 267° West 413 475 36,000  Level FlightAware ADS-B
Tue 01:23:58 AM 38.4040 -115.5930 267° West 413 475 36,000  Level FlightAware ADS-B
Tue 01:24:36 AM 38.4010 -115.6710 267° West 413 475 36,000  Level FlightAware ADS-B
Tue 01:25:23 AM 38.3970 -115.7680 267° West 413 475 36,000  Level FlightAware ADS-B
Tue 01:25:59 AM 38.3930 -115.8430 266° West 413 475 36,000  Level FlightAware ADS-B
Tue 01:26:35 AM 38.3900 -115.9170 267° West 413 475 36,000  Level FlightAware ADS-B
Tue 01:27:25 AM 38.3860 -116.0210 267° West 413 475 36,000  Level FlightAware ADS-B
Tue 01:28:02 AM 38.3550 -116.2775 267° West 410 472 36,000  Level Salt Lake Center
Tue 01:29:03 AM 38.3419 -116.4236 264° West 415 478 36,000  Level Salt Lake Center
Tue 01:30:04 AM 38.3256 -116.5978 263° West 414 476 36,000  Level Salt Lake Center
Tue 01:31:05 AM 38.3119 -116.7422 263° West 413 475 36,000  Level Salt Lake Center
Tue 01:32:06 AM 38.2983 -116.8856 263° West 411 473 36,000  Level Salt Lake Center
Tue 01:38:02 AM 38.2100 -117.7530 263° West 412 474 36,000  Level FlightAware ADS-B
Tue 01:38:42 AM 38.2000 -117.8480 262° West 413 475 36,000  Level FlightAware ADS-B
Tue 01:39:46 AM 38.1850 -117.9880 262° West 415 478 36,000  Level FlightAware ADS-B
Tue 01:40:40 AM 38.1690 -118.1350 262° West 418 481 36,000  Level FlightAware ADS-B
Tue 01:41:40 AM 38.1550 -118.2600 262° West 418 481 36,000  Level FlightAware ADS-B
Tue 01:42:17 AM 38.1470 -118.3370 262° West 418 481 36,000  Level FlightAware ADS-B
Tue 01:43:17 AM 38.1330 -118.4610 262° West 418 481 36,000  Level FlightAware ADS-B
Tue 01:43:51 AM 38.1250 -118.5310 262° West 418 481 36,000  Level FlightAware ADS-B
Tue 01:44:28 AM 38.1170 -118.6080 263° West 418 481 36,000  Level FlightAware ADS-B
Tue 01:45:10 AM 38.0960 -118.7860 262° West 417 480 36,000  Level FlightAware ADS-B
Tue 01:45:58 AM 38.0830 -118.9030 262° West 416 479 36,000  Level FlightAware ADS-B
Tue 01:46:32 AM 38.0730 -118.9850 261° West 417 480 36,000  Level FlightAware ADS-B
Tue 01:47:12 AM 38.0620 -119.0820 262° West 416 479 36,000  Level FlightAware ADS-B
Tue 01:47:54 AM 38.0500 -119.1810 261° West 415 478 36,000  Level FlightAware ADS-B
Tue 01:48:36 AM 38.0380 -119.2840 262° West 416 479 36,000  Level FlightAware ADS-B
Tue 01:49:21 AM 38.0260 -119.3890 262° West 416 479 36,000  Level FlightAware ADS-B
Tue 01:50:04 AM 38.0130 -119.4970 261° West 417 480 36,000  Level FlightAware ADS-B
Tue 01:50:42 AM 38.0020 -119.5860 261° West 416 479 36,000  Level FlightAware ADS-B
Tue 01:51:22 AM 37.9900 -119.6790 261° West 415 478 36,000  Level FlightAware ADS-B
Tue 01:52:00 AM 37.9790 -119.7700 261° West 415 478 36,000  Level FlightAware ADS-B
Tue 01:52:42 AM 37.9660 -119.8750 261° West 416 479 36,000 -643 Level FlightAware ADS-B
Tue 01:53:24 AM 37.9540 -119.9730 261° West 413 475 35,100 -1,737 Descending FlightAware ADS-B
Tue 01:53:58 AM 37.9440 -120.0570 261° West 414 476 33,800 -2,308 Descending FlightAware ADS-B
Tue 01:54:42 AM 37.9300 -120.1610 260° West 413 475 32,100 -2,214 Descending FlightAware ADS-B
Tue 01:55:22 AM 37.9190 -120.2520 261° West 410 472 30,700 -2,143 Descending FlightAware ADS-B
Tue 01:56:06 AM 37.9050 -120.3570 260° West 405 466 29,100 -2,259 Descending FlightAware ADS-B
Tue 01:56:47 AM 37.8930 -120.4530 261° West 403 464 27,500 -2,329 Descending FlightAware ADS-B
Tue 01:57:31 AM 37.8790 -120.5560 260° West 401 461 25,800 -2,286 Descending FlightAware ADS-B
Tue 01:58:11 AM 37.8670 -120.6480 261° West 400 460 24,300 -2,435 Descending FlightAware ADS-B
Tue 01:58:40 AM 37.8620 -120.7180 265° West 402 463 23,000 -2,605 Descending FlightAware ADS-B
Tue 01:59:27 AM 37.8550 -120.8250 265° West 403 464 21,000 -2,345 Descending FlightAware ADS-B
Tue 02:00:30 AM 37.8480 -120.9400 266° West 404 465 18,700 -2,809 Descending FlightAware ADS-B
Tue 02:01:01 AM 37.8411 -121.0490 265° West 405 466 16,600 -3,344 Descending FlightAware ADS-B
Tue 02:01:31 AM 37.8365 -121.1210 265° West 401 461 15,300 -2,455 Descending FlightAware ADS-B
Tue 02:01:45 AM 37.8343 -121.1540 265° West 397 457 14,800 -1,909 Descending FlightAware ADS-B
Tue 02:01:53 AM 37.8320 -121.1700 260° West 394 453 14,600 -2,053 Descending FlightAware ADS-B
Tue 02:02:23 AM 37.8121 -121.2340 249° West 383 441 13,500 -2,100 Descending FlightAware ADS-B
Tue 02:02:53 AM 37.7900 -121.2940 245° Southwest 375 432 12,500 -2,000 Descending FlightAware ADS-B
Tue 02:03:23 AM 37.7689 -121.3530 246° West 364 419 11,500 -1,770 Descending FlightAware ADS-B
Tue 02:03:54 AM 37.7477 -121.4130 246° West 350 403 10,700 -1,059 Descending FlightAware ADS-B
Tue 02:04:31 AM 37.7244 -121.4780 246° West 320 368 10,300 -627 Descending FlightAware ADS-B
Tue 02:05:01 AM 37.7070 -121.5270 246° West 299 344 10,000 -800 Descending FlightAware ADS-B
Tue 02:05:31 AM 37.6910 -121.5720 246° West 289 333 9,500 -1,158 Descending FlightAware ADS-B
Tue 02:05:58 AM 37.6760 -121.6150 246° West 282 325 8,900 -1,135 Descending FlightAware ADS-B
Tue 02:06:08 AM 37.6740 -121.6320 262° West 282 325 8,800 -514 Descending FlightAware ADS-B
Tue 02:06:33 AM 37.6800 -121.6660 283° West 270 311 8,600 -500 Descending FlightAware ADS-B
Tue 02:06:44 AM 37.6840 -121.6830 287° West 264 304 8,500 -692 Descending FlightAware ADS-B
Tue 02:06:59 AM 37.6899 -121.7080 287° West 255 293 8,300 -581 Descending FlightAware ADS-B
Tue 02:07:15 AM 37.6954 -121.7300 288° West 247 284 8,200 -581 Descending FlightAware ADS-B
Tue 02:07:30 AM 37.7010 -121.7510 289° West 240 276 8,000 -857 Descending FlightAware ADS-B
Tue 02:07:36 AM 37.7028 -121.7590 286° West 238 274 7,900 -1,200 Descending FlightAware ADS-B
Tue 02:07:40 AM 37.7035 -121.7640 280° West 235 270 7,800 -750 Descending FlightAware ADS-B
Tue 02:07:44 AM 37.7037 -121.7690 273° West 233 268 7,800 -857 Level FlightAware ADS-B
Tue 02:07:47 AM 37.7035 -121.7730 266° West 232 267 7,700 -1,714 Descending FlightAware ADS-B
Tue 02:07:51 AM 37.7028 -121.7780 260° West 229 264 7,600 -1,091 Descending FlightAware ADS-B
Tue 02:07:58 AM 37.6996 -121.7880 248° West 225 259 7,500 -1,200 Descending FlightAware ADS-B
Tue 02:08:06 AM 37.6947 -121.7950 229° Southwest 221 254 7,300 -1,286 Descending FlightAware ADS-B
Tue 02:08:12 AM 37.6898 -121.8000 219° Southwest 217 250 7,200 -667 Descending FlightAware ADS-B
Tue 02:08:15 AM 37.6869 -121.8010 195° South 216 249 7,200 -667 Level FlightAware ADS-B
Tue 02:08:21 AM 37.6820 -121.8040 206° Southwest 215 247 7,100 -1,059 Descending FlightAware ADS-B
Tue 02:08:32 AM 37.6715 -121.8080 197° South 213 245 6,900 -1,154 Descending FlightAware ADS-B
Tue 02:08:47 AM 37.6568 -121.8120 192° South 213 245 6,600 -1,000 Descending FlightAware ADS-B
Tue 02:09:02 AM 37.6428 -121.8170 196° South 212 244 6,400 -1,000 Descending FlightAware ADS-B
Tue 02:09:17 AM 37.6283 -121.8220 195° South 210 242 6,100 -857 Descending FlightAware ADS-B
Tue 02:09:30 AM 37.6162 -121.8260 195° South 210 242 6,000 -545 Descending FlightAware ADS-B
Tue 02:09:39 AM 37.6076 -121.8290 195° South 211 243 5,900 -462 Descending FlightAware ADS-B
Tue 02:09:43 AM 37.6042 -121.8310 205° Southwest 213 245 5,900  Level FlightAware ADS-B
Tue 02:09:46 AM 37.6015 -121.8330 210° Southwest 214 246 5,900  Level FlightAware ADS-B
Tue 02:09:50 AM 37.5984 -121.8370 226° Southwest 214 246 5,900 -600 Level FlightAware ADS-B
Tue 02:09:56 AM 37.5950 -121.8410 223° Southwest 214 246 5,800 -600 Descending FlightAware ADS-B
Tue 02:10:00 AM 37.5926 -121.8470 243° Southwest 216 249 5,800 -857 Level FlightAware ADS-B
Tue 02:10:03 AM 37.5914 -121.8500 243° Southwest 217 250 5,700 -1,200 Descending FlightAware ADS-B
Tue 02:10:10 AM 37.5894 -121.8590 254° West 220 253 5,600 -1,043 Descending FlightAware ADS-B
Tue 02:10:26 AM 37.5866 -121.8780 259° West 224 258 5,300 -1,161 Descending FlightAware ADS-B
Tue 02:10:41 AM 37.5840 -121.8980 261° West 223 257 5,000 -1,161 Descending FlightAware ADS-B
Tue 02:10:57 AM 37.5814 -121.9180 261° West 220 253 4,700 -900 Descending FlightAware ADS-B
Tue 02:11:01 AM 37.5808 -121.9230 261° West 218 251 4,700  Level FlightAware ADS-B
Tue 02:11:05 AM 37.5804 -121.9290 265° West 217 250 4,700 -375 Level FlightAware ADS-B
Tue 02:11:17 AM 37.5801 -121.9430 268° West 212 244 4,600 -429 Descending FlightAware ADS-B
Tue 02:11:33 AM 37.5803 -121.9620 271° West 201 231 4,500 -600 Descending FlightAware ADS-B
Tue 02:11:37 AM 37.5807 -121.9670 276° West 199 229 4,400 -1,333 Descending FlightAware ADS-B
Tue 02:11:42 AM 37.5813 -121.9720 279° West 200 230 4,300 -1,125 Descending FlightAware ADS-B
Tue 02:11:53 AM 37.5837 -121.9850 283° West 203 234 4,100 -1,154 Descending FlightAware ADS-B
Tue 02:12:08 AM 37.5874 -122.0020 285° West 203 234 3,800 -1,059 Descending FlightAware ADS-B
Tue 02:12:27 AM 37.5917 -122.0240 284° West 201 231 3,500 -706 Descending FlightAware ADS-B
Tue 02:12:42 AM 37.5946 -122.0390 284° West 181 208 3,400 -600 Descending FlightAware ADS-B
Tue 02:12:47 AM 37.5959 -122.0450 285° West 177 204 3,300 -545 Descending FlightAware ADS-B
Tue 02:12:53 AM 37.5976 -122.0500 293° West 175 201 3,300 -545 Level FlightAware ADS-B
Tue 02:12:58 AM 37.5992 -122.0550 292° West 175 201 3,200 -800 Descending FlightAware ADS-B
Tue 02:13:08 AM 37.6030 -122.0640 298° West 178 205 3,100 -818 Descending FlightAware ADS-B
Tue 02:13:20 AM 37.6077 -122.0750 298° West 178 205 2,900 -828 Descending FlightAware ADS-B
Tue 02:13:37 AM 37.6170 -122.0880 312° West 175 201 2,700 -923 Descending FlightAware ADS-B
Tue 02:13:46 AM 37.6221 -122.0950 313° West 177 204 2,500 -1,200 Descending FlightAware ADS-B
Tue 02:13:52 AM 37.6255 -122.0990 317° Northwest 176 203 2,400 -1,000 Descending FlightAware ADS-B
Tue 02:14:04 AM 37.6317 -122.1090 308° West 174 200 2,200 -857 Descending FlightAware ADS-B
Tue 02:14:13 AM 37.6363 -122.1160 310° West 172 198 2,100 -857 Descending FlightAware ADS-B
Tue 02:14:25 AM 37.6421 -122.1250 309° West 171 197 1,900 -1,000 Descending FlightAware ADS-B
Tue 02:14:31 AM 37.6450 -122.1300 306° West 170 196 1,800 -1,200 Descending FlightAware ADS-B
Tue 02:14:40 AM 37.6496 -122.1360 314° West 167 192 1,600 -1,333 Descending FlightAware ADS-B
Tue 02:14:58 AM 37.6584 -122.1500 308° West 161 185 1,200 -1,071 Descending FlightAware ADS-B
Tue 02:15:08 AM 37.6630 -122.1570 310° West 147 169 1,100 -571 Descending FlightAware ADS-B
Tue 02:15:19 AM 37.6677 -122.1640 310° West 142 163 1,000 -692 Descending FlightAware ADS-B
Tue 02:15:34 AM 37.6736 -122.1720 313° West 132 152 800 -900 Descending FlightAware ADS-B
Tue 02:15:39 AM 37.6756 -122.1750 310° West 131 151 700 -900 Descending FlightAware ADS-B
Tue 02:15:54 AM 37.6816 -122.1850 307° West 130 150 500 -720 Descending FlightAware ADS-B
Tue 02:16:04 AM 37.6852 -122.1900 312° West 125 144 400 -353 Descending FlightAware ADS-B
Tue 02:16:11 AM 37.6879 -122.1940 310° West 126 145 400 -333 Level FlightAware ADS-B
Tue 02:16:22 AM 37.6920 -122.2000 311° West 126 145 300 -563 Descending FlightAware ADS-B
Tue 02:16:43 AM 37.6998 -122.2120 309° West 125 144 100 -571 Descending FlightAware ADS-B

Login

Don't have an account? Register now (free) for customized features, flight alerts, and more!